Terminal Aerodrome Forecast
Issued by NWS

Home | Current Version | Previous Version | Text Only | Print | Product List | Glossary On
Versions: 1 2 3 4 5 6 7 8 9 10 11 12 13 14 15 16 17 18 19 20 21 22 23 24 25 26 27 28 29 30 31 32 33 34
000
FTUS45 KABQ 160208 AAA
TAFAEG
TAF AMD
KAEG 160208Z 1602/1624 36011KT P6SM SCT100 BKN150
     FM160800 36006KT P6SM SCT120
     FM162000 26008KT P6SM SCT100 BKN150
     FM162200 23011KT P6SM VCSH BKN100=

USA.gov is the U.S. government's official web portal to all federal, state and local government web resources and services.